Time;durP1;ratioP1;P1;durP2;ratioP2;P2;SDS_P1;SDS_P2;PMS_P1;PMS_P2;Temp;Humidity;BMP_temperature;BMP_pressure;BME280_temperature;BME280_humidity;BME280_pressure;Samples;Min_cycle;Max_cycle;Signal;HPM_P1;HPM_P2
2021/12/16 00:10:19;;;;;;;2.10;2.00;;;2.80;1.40;;;3.76;100.00;96899.61;646911;216;31539;-74
2021/12/16 00:30:00;;;;;;;2.65;1.83;;;3.00;1.40;;;4.37;100.00;96887.93;646312;216;31601;-73
2021/12/16 00:35:52;;;;;;;;;;;3.00;1.40;;;4.29;100.00;96895.92;649052;216;24989;-75
2021/12/16 00:38:34;;;;;;;;;;;2.90;1.40;;;4.26;100.00;96892.92;649556;214;24837;-74
2021/12/16 00:41:16;;;;;;;;;;;2.90;1.40;;;4.41;100.00;96890.64;653786;216;24732;-74
2021/12/16 00:47:14;;;;;;;;;;;3.00;1.40;;;4.53;100.00;96890.98;652604;216;25041;-74
2021/12/16 00:49:46;;;;;;;;;;;3.00;1.40;;;4.52;100.00;96898.27;652908;212;24820;-75
2021/12/16 00:55:29;;;;;;;;;;;3.00;1.40;;;4.30;100.00;96893.05;654987;216;24813;-74
2021/12/16 00:57:57;;;;;;;;;;;2.90;1.40;;;4.24;100.00;96891.91;653461;212;24858;-74
2021/12/16 01:00:40;;;;;;;;;;;2.90;1.40;;;4.15;100.00;96888.92;653244;212;25637;-73
2021/12/16 01:03:31;;;;;;;;;;;2.90;1.40;;;4.06;100.00;96886.94;653987;216;24802;-73
2021/12/16 01:06:29;;;;;;;;;;;2.80;1.40;;;4.17;100.00;96890.53;633168;219;25603;-73
2021/12/16 01:36:12;;;;;;;2.25;1.77;;;2.70;1.40;;;3.70;100.00;96912.13;647397;216;42357;-74
2021/12/16 01:50:16;;;;;;;;;;;2.70;1.40;;;3.53;100.00;96914.51;653439;216;24758;-73
2021/12/16 01:55:58;;;;;;;;;;;2.70;1.40;;;3.77;100.00;96911.50;649773;215;25115;-72
2021/12/16 01:58:42;;;;;;;;;;;2.70;1.40;;;3.67;100.00;96909.75;653509;216;24857;-73
2021/12/16 02:01:31;;;;;;;;;;;2.60;1.40;;;3.66;100.00;96903.06;653058;212;24849;-74
2021/12/16 02:04:39;;;;;;;;;;;2.60;1.40;;;3.75;100.00;96899.11;653981;212;24812;-73
2021/12/16 02:07:29;;;;;;;;;;;2.60;1.40;;;3.75;100.00;96894.18;653390;216;24837;-74
2021/12/16 02:09:56;;;;;;;;;;;2.70;1.40;;;3.74;100.00;96898.38;651363;216;24842;-73
2021/12/16 02:12:48;;;;;;;;;;;2.70;1.40;;;3.96;100.00;96891.45;653645;212;24819;-74
2021/12/16 02:29:46;;;;;;;;;;;2.60;1.40;;;3.69;100.00;96904.60;653086;216;25013;-74
2021/12/16 02:32:39;;;;;;;;;;;2.60;1.40;;;3.71;100.00;96907.80;654348;216;24726;-74
2021/12/16 02:36:02;;;;;;;4.60;3.00;;;2.60;1.40;;;3.56;100.00;96902.34;646766;216;31678;-74
2021/12/16 02:38:43;;;;;;;1.65;1.40;;;2.60;1.40;;;3.54;100.00;96906.14;645969;216;31653;-74
2021/12/16 02:41:22;;;;;;;2.92;2.62;;;2.50;1.40;;;3.50;100.00;96904.89;647155;216;31547;-74
2021/12/16 02:44:09;;;;;;;2.75;2.33;;;2.50;1.40;;;3.55;100.00;96902.54;647152;216;31572;-74
2021/12/16 02:49:35;;;;;;;;;;;2.50;1.40;;;3.66;100.00;96905.68;653371;212;24933;-74
2021/12/16 02:52:16;;;;;;;;;;;2.50;1.40;;;3.56;100.00;96905.40;622772;224;25296;-74
2021/12/16 02:54:58;;;;;;;;;;;2.50;1.40;;;3.49;100.00;96903.94;652743;216;25248;-74
2021/12/16 02:57:47;;;;;;;;;;;2.50;1.40;;;3.44;100.00;96898.44;653463;216;24825;-74
2021/12/16 03:00:20;;;;;;;;;;;2.50;1.40;;;3.54;100.00;96894.41;654283;216;24820;-75
2021/12/16 03:03:02;;;;;;;;;;;2.50;1.40;;;3.74;100.00;96896.30;653709;212;24809;-74
2021/12/16 03:05:46;;;;;;;;;;;2.60;1.40;;;3.91;100.00;96904.41;645606;212;25268;-74
2021/12/16 03:08:28;;;;;;;;;;;2.70;1.40;;;3.65;100.00;96910.38;652716;212;24912;-74
2021/12/16 03:14:22;;;;;;;;;;;2.60;1.40;;;3.69;100.00;96911.84;653515;216;24843;-72
2021/12/16 03:17:03;;;;;;;;;;;2.50;1.40;;;3.62;100.00;96911.00;653028;216;24753;-74
2021/12/16 03:19:49;;;;;;;;;;;2.60;1.40;;;3.54;100.00;96918.86;653366;216;24826;-74
2021/12/16 03:22:41;;;;;;;;;;;2.60;1.40;;;3.47;100.00;96915.56;654321;212;24824;-74
2021/12/16 03:25:13;;;;;;;;;;;2.50;1.40;;;3.45;100.00;96920.22;653511;216;24810;-74
2021/12/16 03:28:19;;;;;;;;;;;2.50;1.40;;;3.47;100.00;96923.40;653036;216;25325;-74
2021/12/16 03:30:54;;;;;;;;;;;2.50;1.40;;;3.35;100.00;96925.03;653929;212;24805;-74
2021/12/16 03:38:40;;;;;;;2.65;2.45;;;2.50;1.40;;;3.70;100.00;96928.64;647346;216;31543;-73
2021/12/16 03:41:21;;;;;;;;;;;2.60;1.40;;;3.58;100.00;96931.20;652665;216;24813;-74
2021/12/16 03:44:05;;;;;;;;;;;2.50;1.40;;;3.56;100.00;96935.38;654666;216;25326;-74
2021/12/16 03:46:44;;;;;;;;;;;2.60;1.40;;;3.58;100.00;96936.13;653527;216;24857;-71
2021/12/16 03:49:25;;;;;;;;;;;2.50;1.40;;;3.56;100.00;96934.77;654105;216;24851;-72
2021/12/16 03:52:08;;;;;;;;;;;2.60;1.40;;;3.80;100.00;96932.77;653452;216;24810;-72
2021/12/16 03:54:49;;;;;;;;;;;2.60;1.40;;;3.80;100.00;96937.56;653753;216;24838;-74
2021/12/16 03:57:32;;;;;;;;;;;2.60;1.40;;;3.70;100.00;96939.92;652864;216;24816;-73
2021/12/16 04:00:15;;;;;;;;;;;2.60;1.40;;;3.76;100.00;96943.83;654006;212;24838;-74
2021/12/16 04:02:56;;;;;;;;;;;2.60;1.40;;;3.49;100.00;96943.45;653222;216;25007;-73
2021/12/16 04:05:38;;;;;;;;;;;2.50;1.40;;;3.42;100.00;96946.88;646649;216;24955;-73
2021/12/16 04:08:20;;;;;;;;;;;2.50;1.40;;;3.55;100.00;96950.62;653715;216;24829;-73
2021/12/16 04:11:11;;;;;;;;;;;2.50;1.40;;;3.42;100.00;96954.77;652064;216;24854;-73
2021/12/16 04:13:57;;;;;;;;;;;2.50;1.40;;;3.51;100.00;96957.52;654436;216;24817;-74
2021/12/16 04:16:36;;;;;;;;;;;2.50;1.40;;;3.66;100.00;96960.92;654278;212;24808;-74
2021/12/16 04:19:22;;;;;;;;;;;2.50;1.40;;;3.49;100.00;96961.59;652892;212;24754;-74
2021/12/16 04:22:04;;;;;;;;;;;2.50;1.40;;;3.55;100.00;96964.99;653745;216;24804;-75
2021/12/16 04:24:46;;;;;;;;;;;2.50;1.40;;;3.45;100.00;96963.22;654160;212;24842;-73
2021/12/16 04:27:27;;;;;;;;;;;2.50;1.40;;;3.38;100.00;96962.91;648586;217;24936;-74
2021/12/16 04:30:11;;;;;;;;;;;2.40;1.40;;;3.66;100.00;96968.65;652645;212;24108;-74
2021/12/16 04:32:52;;;;;;;;;;;2.50;1.40;;;3.48;100.00;96972.00;653653;212;24885;-74
2021/12/16 04:35:51;;;;;;;5.00;4.22;;;2.50;1.40;;;3.44;100.00;96964.04;647141;212;34396;-74
2021/12/16 04:38:33;;;;;;;5.43;4.10;;;2.40;1.40;;;3.38;100.00;96969.80;618763;222;31940;-74
2021/12/16 04:41:15;;;;;;;4.95;3.75;;;2.40;1.40;;;3.46;100.00;96972.41;648008;216;31549;-74
2021/12/16 04:43:59;;;;;;;;;;;2.40;1.40;;;3.42;100.00;96971.43;653678;212;24820;-72
2021/12/16 04:46:40;;;;;;;;;;;2.40;1.40;;;3.39;100.00;96977.02;655026;216;25207;-73
2021/12/16 04:49:22;;;;;;;;;;;2.40;1.40;;;3.34;100.00;96977.27;652917;212;24729;-72
2021/12/16 04:52:03;;;;;;;;;;;2.40;1.40;;;3.42;100.00;96985.64;653432;212;24826;-72
2021/12/16 04:54:48;;;;;;;;;;;2.40;1.40;;;3.34;100.00;96983.48;654057;216;24801;-73
2021/12/16 04:57:29;;;;;;;;;;;2.40;1.40;;;3.42;100.00;96990.63;652935;216;24720;-74
2021/12/16 05:00:11;;;;;;;;;;;2.40;1.40;;;3.48;100.00;96989.11;652648;216;24841;-74
2021/12/16 05:02:55;;;;;;;;;;;2.40;1.40;;;3.69;100.00;96993.52;654179;216;24738;-75
2021/12/16 05:05:36;;;;;;;;;;;2.50;1.40;;;3.64;100.00;96989.50;653808;212;25258;-72
2021/12/16 05:08:17;;;;;;;;;;;2.50;1.40;;;3.66;100.00;96994.39;653996;216;24843;-74
2021/12/16 05:11:08;;;;;;;;;;;2.40;1.40;;;3.49;100.00;96991.50;652895;213;24866;-74
2021/12/16 05:13:49;;;;;;;;;;;2.40;1.40;;;3.57;100.00;97000.29;653479;212;24814;-74
2021/12/16 05:16:31;;;;;;;;;;;2.50;1.40;;;3.44;100.00;96997.45;653050;212;24810;-74
2021/12/16 05:19:12;;;;;;;;;;;2.30;1.40;;;3.31;100.00;97002.33;647843;217;24840;-74
2021/12/16 05:24:12;;;;;;;;;;;2.30;1.40;;;3.41;100.00;97008.52;652638;216;25345;-74
2021/12/16 05:24:35;;;;;;;;;;;2.30;1.40;;;3.65;100.00;97015.39;654179;212;25390;-74
2021/12/16 05:27:16;;;;;;;;;;;2.40;1.40;;;3.37;100.00;97015.90;653120;212;24827;-74
2021/12/16 05:29:58;;;;;;;;;;;2.40;1.40;;;3.44;100.00;97015.19;653036;216;24804;-74
2021/12/16 05:32:45;;;;;;;;;;;2.40;1.40;;;3.27;100.00;97019.73;649311;217;24857;-72
2021/12/16 05:35:52;;;;;;;2.53;2.12;;;2.30;1.40;;;3.39;100.00;97020.70;646387;216;42166;-74
2021/12/16 05:38:37;;;;;;;3.40;2.75;;;2.30;1.40;;;3.10;100.00;97026.22;647444;212;31526;-74
2021/12/16 05:41:19;;;;;;;3.25;2.03;;;2.20;1.40;;;3.13;100.00;97025.19;646502;216;31608;-74
2021/12/16 05:44:02;;;;;;;;;;;2.20;1.40;;;3.29;100.00;97023.06;654062;212;25020;-74
2021/12/16 05:46:45;;;;;;;;;;;2.20;1.40;;;3.46;100.00;97022.45;653863;212;24881;-73
2021/12/16 05:49:25;;;;;;;;;;;2.20;1.40;;;3.44;100.00;97032.39;652801;212;25273;-73
2021/12/16 05:52:07;;;;;;;;;;;2.30;1.40;;;3.25;100.00;97037.55;654066;216;24943;-72
2021/12/16 05:54:48;;;;;;;;;;;2.20;1.40;;;3.36;100.00;97037.20;653412;216;24815;-73
2021/12/16 05:57:33;;;;;;;;;;;2.20;1.40;;;3.24;100.00;97038.59;649390;215;24941;-74
2021/12/16 06:00:23;;;;;;;;;;;2.20;1.40;;;3.35;100.00;97045.19;652969;216;24941;-72
2021/12/16 06:03:05;;;;;;;;;;;2.20;1.40;;;3.20;100.00;97045.86;648274;217;24817;-74
2021/12/16 06:05:46;;;;;;;;;;;2.20;1.40;;;3.09;100.00;97044.73;646777;216;24768;-72
2021/12/16 06:08:27;;;;;;;;;;;2.20;1.40;;;3.18;100.00;97045.42;653392;216;25504;-74
2021/12/16 06:11:16;;;;;;;;;;;2.20;1.40;;;3.33;100.00;97052.35;652353;216;25306;-72
2021/12/16 06:14:06;;;;;;;;;;;2.20;1.40;;;3.27;100.00;97056.11;653676;212;25247;-74
2021/12/16 06:28:06;;;;;;;;;;;2.20;1.40;;;3.06;100.00;97071.32;652752;216;24873;-74
2021/12/16 06:30:46;;;;;;;;;;;2.10;1.40;;;3.19;100.00;97073.61;653516;212;24753;-75
2021/12/16 06:35:52;;;;;;;4.18;1.40;;;2.10;1.40;;;3.04;100.00;97079.44;647065;212;42256;-73
2021/12/16 06:38:32;;;;;;;;;;;2.10;1.40;;;3.05;100.00;97074.16;653048;212;24749;-74
2021/12/16 06:41:13;;;;;;;;;;;2.10;1.40;;;3.13;100.00;97067.15;654151;216;24953;-74
2021/12/16 06:43:56;;;;;;;;;;;2.10;1.40;;;3.20;100.00;97070.62;622336;227;25459;-74
2021/12/16 06:46:41;;;;;;;;;;;2.20;1.40;;;3.32;100.00;97071.08;653898;216;24806;-74
2021/12/16 06:49:22;;;;;;;;;;;2.20;1.40;;;3.45;100.00;97069.92;652726;216;24873;-71
2021/12/16 06:52:05;;;;;;;;;;;2.20;1.40;;;3.51;100.00;97072.78;648342;215;24757;-75
2021/12/16 06:55:04;;;;;;;;;;;2.20;1.40;;;3.53;100.00;97078.04;649553;215;24712;-73
2021/12/16 06:57:41;;;;;;;;;;;2.20;1.40;;;3.43;100.00;97080.94;653730;216;24737;-74
2021/12/16 07:00:20;;;;;;;;;;;2.20;1.40;;;3.32;100.00;97077.77;653597;212;24835;-72
2021/12/16 07:03:00;;;;;;;;;;;2.10;1.40;;;3.34;100.00;97080.36;652734;212;25503;-74
2021/12/16 07:05:39;;;;;;;;;;;2.20;1.40;;;3.30;100.00;97082.70;647004;212;24967;-73
2021/12/16 07:08:20;;;;;;;;;;;2.20;1.40;;;3.49;100.00;97082.23;653103;216;24852;-74
2021/12/16 07:11:03;;;;;;;;;;;2.20;1.40;;;3.20;100.00;97079.75;652148;216;25400;-75
2021/12/16 07:13:55;;;;;;;;;;;2.10;1.40;;;3.08;100.00;97082.63;654155;216;24926;-74
2021/12/16 07:16:25;;;;;;;;;;;2.10;1.40;;;3.09;100.00;97084.54;654020;216;24804;-74
2021/12/16 07:19:09;;;;;;;;;;;2.10;1.40;;;3.12;100.00;97087.80;652988;216;24860;-74
2021/12/16 07:21:50;;;;;;;;;;;2.20;1.40;;;3.23;100.00;97084.83;653413;212;24824;-74
2021/12/16 07:24:33;;;;;;;;;;;2.20;1.40;;;3.11;100.00;97090.08;622304;227;24890;-75
2021/12/16 07:27:15;;;;;;;;;;;2.20;1.40;;;3.07;100.00;97091.22;654380;212;25255;-73
2021/12/16 07:29:57;;;;;;;;;;;2.20;1.40;;;3.07;100.00;97096.68;653376;216;24828;-74
2021/12/16 07:32:38;;;;;;;;;;;2.20;1.40;;;3.17;100.00;97100.74;652837;216;24792;-74
2021/12/16 07:35:54;;;;;;;1.90;1.40;;;2.20;1.40;;;3.11;100.00;97108.00;646026;212;31771;-74
2021/12/16 07:38:37;;;;;;;2.10;1.87;;;2.20;1.40;;;3.20;100.00;97114.73;646783;212;32646;-71
2021/12/16 07:41:31;;;;;;;3.22;2.47;;;2.20;1.40;;;3.14;100.00;97111.92;647665;216;32508;-74
2021/12/16 07:44:10;;;;;;;3.78;3.45;;;2.30;1.40;;;2.99;100.00;97107.83;619416;222;32500;-75
2021/12/16 07:46:53;;;;;;;;;;;2.30;1.40;;;3.04;100.00;97109.76;653367;216;24826;-75
2021/12/16 07:49:34;;;;;;;;;;;2.30;1.40;;;3.03;100.00;97101.17;653685;212;24824;-74
2021/12/16 07:52:15;;;;;;;;;;;2.30;1.40;;;3.16;100.00;97101.43;649109;217;24771;-75
2021/12/16 07:54:56;;;;;;;;;;;2.40;1.40;;;3.33;100.00;97099.73;648890;217;24855;-74
2021/12/16 07:57:37;;;;;;;;;;;2.40;1.40;;;3.59;100.00;97102.20;652763;216;25268;-75
2021/12/16 08:00:20;;;;;;;;;;;2.50;1.40;;;3.62;100.00;97106.52;652997;216;25275;-72
2021/12/16 08:03:02;;;;;;;;;;;2.50;1.40;;;3.78;100.00;97106.09;653205;216;24815;-75
2021/12/16 08:05:46;;;;;;;;;;;2.60;1.40;;;3.95;100.00;97115.06;645387;216;24826;-75
2021/12/16 08:08:25;;;;;;;;;;;2.70;1.40;;;3.76;100.00;97117.24;653902;216;24807;-72
2021/12/16 08:11:08;;;;;;;;;;;2.60;1.40;;;3.73;100.00;97123.58;653146;216;24820;-75
2021/12/16 08:13:52;;;;;;;;;;;2.50;1.40;;;3.59;100.00;97122.09;625663;225;24914;-75
2021/12/16 08:16:33;;;;;;;;;;;2.50;1.40;;;3.75;100.00;97120.31;653845;212;24808;-75
2021/12/16 08:19:17;;;;;;;;;;;2.60;1.40;;;4.01;100.00;97120.44;653957;216;24715;-75
2021/12/16 08:21:59;;;;;;;;;;;2.80;1.40;;;3.92;100.00;97129.56;653021;212;24815;-75
2021/12/16 08:24:40;;;;;;;;;;;2.80;1.40;;;4.04;100.00;97133.38;653222;212;24821;-75
2021/12/16 08:27:21;;;;;;;;;;;2.90;1.40;;;4.11;100.00;97130.02;623289;226;25252;-75
2021/12/16 08:30:03;;;;;;;;;;;3.00;1.40;;;4.13;100.00;97129.70;652724;216;24724;-75
2021/12/16 08:32:44;;;;;;;;;;;2.90;1.40;;;4.06;100.00;97133.77;654288;216;25247;-75
2021/12/16 08:35:50;;;;;;;;;;;2.90;1.40;;;3.90;100.00;97137.63;653034;216;24843;-76
2021/12/16 08:38:31;;;;;;;;;;;2.90;1.40;;;3.82;100.00;97134.79;649518;215;25154;-75
2021/12/16 08:41:13;;;;;;;;;;;2.90;1.40;;;3.88;100.00;97137.74;652331;216;25460;-75
2021/12/16 08:43:54;;;;;;;;;;;2.90;1.40;;;4.18;100.00;97135.17;652841;216;24803;-75
2021/12/16 08:46:35;;;;;;;;;;;3.20;1.40;;;4.10;100.00;97142.23;653892;212;24721;-75
2021/12/16 08:49:16;;;;;;;;;;;3.10;1.40;;;4.09;100.00;97141.88;649424;216;24820;-74
2021/12/16 08:51:59;;;;;;;;;;;3.10;1.40;;;4.07;100.00;97139.05;653185;212;24803;-75
2021/12/16 08:54:40;;;;;;;;;;;3.30;1.40;;;4.14;100.00;97142.63;653934;212;24826;-75
2021/12/16 08:57:21;;;;;;;;;;;3.20;1.40;;;4.04;100.00;97140.02;654673;216;24818;-75
2021/12/16 09:00:03;;;;;;;;;;;3.00;1.40;;;3.97;100.00;97143.89;648342;217;24809;-75
2021/12/16 09:02:45;;;;;;;;;;;3.10;1.40;;;4.18;100.00;97136.02;653062;212;24832;-76
2021/12/16 09:05:28;;;;;;;;;;;3.20;1.40;;;4.42;100.00;97142.09;648391;212;24756;-74
2021/12/16 09:08:07;;;;;;;;;;;3.50;1.40;;;4.45;100.00;97141.21;653768;216;25720;-75
2021/12/16 09:10:49;;;;;;;;;;;3.50;1.40;;;4.23;100.00;97154.54;652113;212;24964;-75
2021/12/16 09:13:30;;;;;;;;;;;3.30;1.40;;;4.25;100.00;97153.74;654003;212;24715;-75
2021/12/16 09:16:13;;;;;;;;;;;3.40;1.40;;;4.63;100.00;97159.64;652810;216;24828;-75
2021/12/16 09:18:53;;;;;;;;;;;3.60;1.40;;;4.60;100.00;97166.60;654764;212;24821;-75
2021/12/16 09:21:34;;;;;;;;;;;3.60;1.40;;;4.70;100.00;97169.30;652589;216;24815;-76
2021/12/16 09:24:15;;;;;;;;;;;3.70;1.40;;;4.45;100.00;97169.62;654060;212;24718;-75
2021/12/16 09:26:56;;;;;;;;;;;3.40;1.40;;;4.12;100.00;97175.08;654718;213;24899;-75
2021/12/16 09:29:37;;;;;;;;;;;3.30;1.40;;;4.22;100.00;97173.72;653498;216;24822;-74
2021/12/16 09:32:19;;;;;;;;;;;3.20;1.40;;;4.02;100.00;97173.94;653622;216;24831;-75
2021/12/16 09:35:54;;;;;;;;;;;3.20;1.40;;;4.02;100.00;97180.09;653763;212;25642;-75
2021/12/16 09:38:36;;;;;;;;;;;3.20;1.40;;;4.15;100.00;97175.89;653711;216;24806;-73
2021/12/16 09:41:17;;;;;;;;;;;3.30;1.40;;;4.17;100.00;97188.45;649559;214;24842;-75
2021/12/16 09:43:59;;;;;;;;;;;3.30;1.40;;;4.24;100.00;97182.42;653605;216;24736;-73
2021/12/16 09:46:40;;;;;;;;;;;3.40;1.40;;;4.14;100.00;97186.63;653077;212;25262;-75
2021/12/16 09:49:21;;;;;;;;;;;3.40;1.40;;;4.32;100.00;97187.54;623372;225;24777;-75
2021/12/16 09:52:03;;;;;;;;;;;3.50;1.40;;;4.58;100.00;97180.81;653015;212;24845;-75
2021/12/16 09:54:47;;;;;;;;;;;3.60;1.40;;;4.65;100.00;97184.39;653663;216;24903;-76
2021/12/16 09:57:29;;;;;;;;;;;3.60;1.40;;;4.76;100.00;97182.73;653252;212;25751;-75
2021/12/16 10:00:10;;;;;;;;;;;3.70;1.40;;;4.68;100.00;97180.23;654802;212;24905;-75
2021/12/16 10:02:51;;;;;;;;;;;3.60;1.40;;;4.84;100.00;97183.84;652844;216;24820;-75
2021/12/16 10:05:34;;;;;;;;;;;3.80;1.40;;;5.08;100.00;97180.95;647212;216;24916;-76
2021/12/16 10:08:14;;;;;;;;;;;3.90;1.40;;;5.16;100.00;97185.51;652989;212;25343;-75
2021/12/16 10:10:55;;;;;;;;;;;4.00;1.40;;;5.10;100.00;97187.12;653172;216;25194;-75
2021/12/16 10:13:45;;;;;;;;;;;3.90;1.40;;;5.15;100.00;97181.45;654085;212;24830;-75
2021/12/16 10:19:05;;;;;;;;;;;3.90;1.40;;;5.14;100.00;97175.57;653026;216;24821;-74
2021/12/16 10:21:47;;;;;;;;;;;3.90;1.40;;;4.84;100.00;97171.39;652697;216;24732;-75
2021/12/16 10:24:31;;;;;;;;;;;3.70;1.40;;;4.65;100.00;97177.36;653730;212;24803;-77
2021/12/16 10:27:15;;;;;;;;;;;3.60;1.40;;;4.80;100.00;97175.20;638177;217;25243;-75
2021/12/16 10:29:57;;;;;;;;;;;3.90;1.40;;;5.24;100.00;97170.98;652790;212;24820;-75
2021/12/16 10:32:42;;;;;;;;;;;4.20;1.40;;;5.77;100.00;97166.30;653393;216;24811;-75
2021/12/16 10:35:50;;;;;;;2.40;2.00;;;4.70;1.40;;;6.32;100.00;97161.84;630555;220;31763;-75
2021/12/16 10:38:32;;;;;;;;;;;4.90;1.40;;;6.19;100.00;97159.74;653382;212;24746;-75
2021/12/16 10:41:13;;;;;;;;;;;4.90;1.40;;;6.31;100.00;97164.30;653918;212;24999;-75
2021/12/16 10:44:14;;;;;;;;;;;5.30;1.40;;;7.52;100.00;97155.84;652755;212;24842;-76
2021/12/16 10:46:59;;;;;;;;;;;7.40;1.40;;;10.11;100.00;97160.23;654681;212;24800;-74
2021/12/16 10:49:42;;;;;;;;;;;10.00;1.40;;;10.16;100.00;97163.41;653915;212;24803;-76
2021/12/16 10:52:26;;;;;;;;;;;8.10;1.40;;;11.17;100.00;97145.39;654696;212;24814;-76
2021/12/16 10:55:04;;;;;;;;;;;8.00;1.40;;;12.04;100.00;97145.67;653620;216;24824;-76
2021/12/16 10:57:46;;;;;;;;;;;10.60;1.40;;;14.81;100.00;97140.53;622954;224;24931;-75
2021/12/16 11:00:27;;;;;;;;;;;14.00;1.40;;;18.82;96.65;97134.78;649211;214;24814;-77
2021/12/16 11:03:08;;;;;;;;;;;15.70;1.40;;;20.36;82.23;97123.15;652905;216;24817;-75
2021/12/16 11:05:50;;;;;;;;;;;15.70;1.40;;;21.75;75.17;97129.63;645822;212;24842;-76
2021/12/16 11:08:31;;;;;;;;;;;14.10;1.40;;;20.26;75.83;97137.45;653633;216;24950;-75
2021/12/16 11:11:26;;;;;;;;;;;12.30;1.40;;;17.94;83.42;97143.97;626242;224;24838;-75
2021/12/16 11:14:06;;;;;;;;;;;10.30;1.40;;;15.69;94.30;97152.43;654091;216;24823;-75
2021/12/16 11:16:47;;;;;;;;;;;8.70;1.40;;;12.35;100.00;97155.34;653981;216;24814;-77
2021/12/16 11:19:41;;;;;;;;;;;7.30;1.40;;;10.19;100.00;97159.63;649038;216;25140;-75
2021/12/16 11:22:23;;;;;;;;;;;6.20;1.40;;;8.86;100.00;97155.72;649178;215;25259;-74
2021/12/16 11:25:16;;;;;;;;;;;5.60;1.40;;;8.59;100.00;97150.75;623097;224;24880;-76
2021/12/16 11:28:10;;;;;;;;;;;5.70;1.40;;;8.04;100.00;97148.31;654458;212;25248;-76
2021/12/16 11:30:57;;;;;;;;;;;5.60;1.40;;;7.96;100.00;97148.66;653915;216;24216;-76
2021/12/16 11:35:55;;;;;;;1.10;1.00;;;5.60;1.40;;;7.53;100.00;97152.69;615915;224;31823;-76
2021/12/16 11:38:36;;;;;;;0.87;0.87;;;5.60;1.40;;;7.59;100.00;97149.77;646817;216;42784;-76
2021/12/16 11:41:35;;;;;;;1.03;0.93;;;5.60;1.40;;;7.61;100.00;97149.69;646098;212;31528;-76
2021/12/16 11:44:18;;;;;;;1.30;0.90;;;5.60;1.40;;;7.64;100.00;97147.34;646301;216;32294;-76
2021/12/16 11:47:08;;;;;;;2.10;2.00;;;5.50;1.40;;;8.05;100.00;97150.13;647557;212;31569;-76
2021/12/16 11:50:03;;;;;;;1.20;0.60;;;5.50;1.40;;;7.74;100.00;97149.13;619117;222;31854;-75
2021/12/16 11:52:45;;;;;;;1.67;1.23;;;5.30;1.40;;;7.63;100.00;97148.24;645938;216;31749;-76
2021/12/16 11:55:25;;;;;;;1.90;1.60;;;5.40;1.40;;;7.70;100.00;97154.23;647205;212;33149;-75
2021/12/16 11:58:12;;;;;;;1.92;1.42;;;5.40;1.40;;;7.52;100.00;97159.19;646668;216;42293;-74
2021/12/16 12:00:54;;;;;;;1.90;1.08;;;5.40;1.40;;;7.58;100.00;97156.97;646622;216;32109;-74
2021/12/16 12:03:35;;;;;;;1.63;1.37;;;5.50;1.40;;;7.72;100.00;97154.11;647790;212;32016;-75
2021/12/16 12:06:19;;;;;;;1.83;1.30;;;5.50;1.40;;;7.66;100.00;97154.17;647076;216;32751;-75
2021/12/16 12:09:00;;;;;;;1.70;1.10;;;5.50;1.40;;;7.30;100.00;97157.09;647619;216;31533;-73
2021/12/16 12:11:43;;;;;;;1.77;1.47;;;5.30;1.40;;;7.36;100.00;97155.90;646318;212;31799;-74
2021/12/16 12:14:24;;;;;;;1.40;1.30;;;5.30;1.40;;;7.36;100.00;97155.25;647075;216;31515;-76
2021/12/16 12:17:08;;;;;;;1.20;1.00;;;5.40;1.40;;;7.50;100.00;97157.00;619963;225;31877;-75
2021/12/16 12:19:50;;;;;;;0.98;0.88;;;5.40;1.40;;;7.36;100.00;97154.45;646813;212;31550;-76
2021/12/16 12:22:31;;;;;;;0.90;0.70;;;5.40;1.40;;;7.40;100.00;97155.01;646635;212;31544;-76
2021/12/16 12:25:13;;;;;;;1.23;1.03;;;5.50;1.40;;;7.64;100.00;97152.85;619371;226;31845;-75
2021/12/16 12:27:56;;;;;;;1.07;0.73;;;5.70;1.40;;;7.23;100.00;97151.48;647004;216;31513;-74
2021/12/16 12:30:38;;;;;;;1.70;1.10;;;5.60;1.40;;;7.01;100.00;97156.20;647407;212;31529;-75
2021/12/16 12:35:54;;;;;;;2.45;1.27;;;5.40;1.40;;;7.32;100.00;97143.04;647628;212;31822;-76
2021/12/16 12:38:36;;;;;;;1.27;0.93;;;5.40;1.40;;;7.25;100.00;97146.45;646034;216;31870;-74
2021/12/16 12:41:17;;;;;;;1.65;0.80;;;5.20;1.40;;;6.89;100.00;97147.71;646996;216;32073;-76
2021/12/16 12:44:01;;;;;;;1.90;1.33;;;5.10;1.40;;;7.00;100.00;97144.11;647575;216;31672;-73
2021/12/16 12:46:42;;;;;;;1.50;1.20;;;5.20;1.40;;;6.98;100.00;97145.48;647206;216;32366;-73
2021/12/16 12:49:25;;;;;;;1.12;0.98;;;5.20;1.40;;;7.38;100.00;97146.49;619405;226;31920;-74
2021/12/16 12:52:14;;;;;;;1.35;0.90;;;5.30;1.40;;;6.72;100.00;97149.56;648412;216;31609;-75
2021/12/16 12:55:03;;;;;;;1.70;0.90;;;5.10;1.40;;;7.41;100.00;97148.55;618776;225;32206;-75
2021/12/16 12:57:46;;;;;;;0.83;0.80;;;5.40;1.40;;;6.73;100.00;97147.47;646481;212;42187;-74
2021/12/16 13:00:34;;;;;;;1.30;1.00;;;4.90;1.40;;;6.53;100.00;97144.33;647236;216;31525;-74
2021/12/16 13:03:18;;;;;;;1.47;0.83;;;4.90;1.40;;;6.33;100.00;97140.53;647015;212;31551;-76
2021/12/16 13:06:03;;;;;;;1.00;0.90;;;4.80;1.40;;;6.48;100.00;97140.64;638653;212;31653;-76
2021/12/16 13:08:45;;;;;;;1.20;0.80;;;4.90;1.40;;;6.13;100.00;97141.75;646260;212;31563;-74
2021/12/16 13:11:31;;;;;;;0.93;0.80;;;4.60;1.40;;;6.22;100.00;97146.08;647838;212;31648;-76
2021/12/16 13:14:20;;;;;;;0.70;0.70;;;4.70;1.40;;;6.34;100.00;97141.64;619206;222;31871;-75
2021/12/16 13:17:16;;;;;;;2.00;1.20;;;4.70;1.40;;;6.47;100.00;97144.48;620734;222;31857;-75
2021/12/16 13:28:56;;;;;;;0.70;0.53;;;5.00;1.40;;;6.33;100.00;97136.66;619826;222;31944;-76
2021/12/16 13:31:50;;;;;;;1.05;0.60;;;4.70;1.40;;;6.05;100.00;97130.42;646786;216;31501;-75
2021/12/16 13:36:06;;;;;;;0.80;0.40;;;4.80;1.40;;;5.86;100.00;97114.23;619331;225;31902;-75
2021/12/16 13:38:45;;;;;;;0.77;0.67;;;4.60;1.40;;;5.78;100.00;97118.58;620877;226;32277;-75
2021/12/16 13:41:31;;;;;;;0.80;0.60;;;4.60;1.40;;;5.79;100.00;97126.19;619869;222;32248;-75
2021/12/16 13:44:15;;;;;;;0.70;0.50;;;4.60;1.40;;;5.97;100.00;97128.88;646279;212;31499;-75
2021/12/16 13:47:04;;;;;;;0.40;0.30;;;4.70;1.40;;;6.11;100.00;97130.48;620393;226;31871;-74
2021/12/16 13:59:33;;;;;;;1.10;0.73;;;4.80;1.40;;;6.41;100.00;97147.97;646740;216;31500;-75
2021/12/16 14:01:40;;;;;;;0.90;0.50;;;4.90;1.40;;;6.12;100.00;97144.58;646367;212;32079;-75
2021/12/16 14:07:29;;;;;;;1.10;0.40;;;4.80;1.40;;;6.13;100.00;97145.30;647398;212;31491;-75
2021/12/16 14:10:18;;;;;;;0.80;0.70;;;4.80;1.40;;;6.56;100.00;97146.17;647646;212;31569;-76
2021/12/16 14:16:34;;;;;;;0.70;0.60;;;5.00;1.40;;;6.52;100.00;97152.29;647066;216;31513;-76
2021/12/16 14:25:19;;;;;;;0.50;0.37;;;4.80;1.40;;;6.09;100.00;97135.14;647007;216;32252;-76
2021/12/16 14:36:27;;;;;;;1.40;0.80;;;4.30;1.40;;;5.61;100.00;97126.44;646761;212;31567;-75
2021/12/16 14:38:57;;;;;;;1.20;0.70;;;4.20;1.40;;;5.58;100.00;97143.42;647952;212;32010;-75
2021/12/16 14:41:40;;;;;;;0.90;0.45;;;4.10;1.40;;;5.81;100.00;97148.30;646823;212;42646;-76
2021/12/16 14:46:47;;;;;;;0.60;0.60;;;4.30;1.40;;;5.81;100.00;97169.30;647322;216;31544;-75
2021/12/16 14:49:22;;;;;;;0.60;0.60;;;4.20;1.40;;;5.44;100.00;97177.89;646784;216;31508;-75
2021/12/16 14:52:03;;;;;;;0.80;0.80;;;4.00;1.40;;;5.38;100.00;97179.96;647187;212;31687;-75
2021/12/16 14:54:50;;;;;;;0.70;0.60;;;3.90;1.40;;;5.39;100.00;97179.42;646644;216;31511;-75
2021/12/16 14:57:36;;;;;;;1.02;0.75;;;3.90;1.40;;;5.23;100.00;97182.72;647282;216;31569;-76
2021/12/16 15:03:03;;;;;;;0.65;0.65;;;3.70;1.40;;;5.05;100.00;97201.28;645800;216;31572;-75
2021/12/16 15:05:48;;;;;;;1.10;0.80;;;3.60;1.40;;;5.00;100.00;97209.28;639001;212;31682;-74
2021/12/16 15:08:36;;;;;;;1.30;1.00;;;3.60;1.40;;;5.19;100.00;97207.53;647066;216;32696;-75
2021/12/16 15:11:13;;;;;;;1.93;1.73;;;3.70;1.40;;;4.98;100.00;97202.67;648788;216;31829;-75
2021/12/16 15:13:59;;;;;;;1.02;1.02;;;3.60;1.40;;;4.92;100.00;97196.50;646770;216;32179;-75
2021/12/16 15:36:17;;;;;;;0.80;0.80;;;3.20;1.40;;;4.21;100.00;97207.35;646081;216;31574;-75